sensor_id;sensor_type;location;lat;lon;timestamp;pressure;altitude;pressure_sealevel;temperature;humidity
5350;BME280;2697;42.144;24.794;2023-04-23T00:01:46;-19465.13;;;11.47;100.00
5350;BME280;2697;42.144;24.794;2023-04-23T00:04:14;-19464.84;;;11.46;100.00
5350;BME280;2697;42.144;24.794;2023-04-23T00:06:41;-19463.34;;;11.41;100.00
5350;BME280;2697;42.144;24.794;2023-04-23T00:09:07;-19461.09;;;11.33;100.00
5350;BME280;2697;42.144;24.794;2023-04-23T00:11:34;-19459.13;;;11.27;100.00
5350;BME280;2697;42.144;24.794;2023-04-23T00:13:59;-19457.94;;;11.23;100.00
5350;BME280;2697;42.144;24.794;2023-04-23T00:16:25;-19456.59;;;11.18;100.00
5350;BME280;2697;42.144;24.794;2023-04-23T00:18:50;-19453.00;;;11.06;100.00
5350;BME280;2697;42.144;24.794;2023-04-23T00:21:16;-19460.50;;;11.31;100.00
5350;BME280;2697;42.144;24.794;2023-04-23T00:23:41;-19457.94;;;11.23;100.00
5350;BME280;2697;42.144;24.794;2023-04-23T00:26:06;-19452.53;;;11.04;100.00
5350;BME280;2697;42.144;24.794;2023-04-23T00:28:32;-19451.19;;;11.00;100.00
5350;BME280;2697;42.144;24.794;2023-04-23T00:30:57;-19451.19;;;11.00;100.00
5350;BME280;2697;42.144;24.794;2023-04-23T00:33:23;-19448.34;;;10.90;100.00
5350;BME280;2697;42.144;24.794;2023-04-23T00:35:48;-19445.03;;;10.79;100.00
5350;BME280;2697;42.144;24.794;2023-04-23T00:38:13;-19445.03;;;10.79;100.00
5350;BME280;2697;42.144;24.794;2023-04-23T00:40:39;-19448.03;;;10.89;100.00
5350;BME280;2697;42.144;24.794;2023-04-23T00:43:05;-19450.13;;;10.96;100.00
5350;BME280;2697;42.144;24.794;2023-04-23T00:45:31;-19449.53;;;10.94;100.00
5350;BME280;2697;42.144;24.794;2023-04-23T00:47:57;-19454.50;;;11.11;100.00
5350;BME280;2697;42.144;24.794;2023-04-23T00:50:23;-19452.25;;;11.03;100.00
5350;BME280;2697;42.144;24.794;2023-04-23T00:52:48;-19453.00;;;11.06;100.00
5350;BME280;2697;42.144;24.794;2023-04-23T00:55:13;-19453.88;;;11.09;100.00
5350;BME280;2697;42.144;24.794;2023-04-23T00:57:40;-19451.78;;;11.08;100.00
5350;BME280;2697;42.144;24.794;2023-04-23T01:00:07;-18785.16;;;11.14;100.00
5350;BME280;2697;42.144;24.794;2023-04-23T01:02:33;-16444.69;;;11.11;100.00
5350;BME280;2697;42.144;24.794;2023-04-23T01:05:00;-12096.09;;;11.14;100.00
5350;BME280;2697;42.144;24.794;2023-04-23T01:07:26;-7742.50;;;11.20;100.00
5350;BME280;2697;42.144;24.794;2023-04-23T01:09:52;-2711.94;;;11.22;100.00
5350;BME280;2697;42.144;24.794;2023-04-23T01:12:18;981.69;;;11.26;100.00
5350;BME280;2697;42.144;24.794;2023-04-23T01:14:43;3670.97;;;11.35;100.00
5350;BME280;2697;42.144;24.794;2023-04-23T01:17:10;5352.06;;;11.31;100.00
5350;BME280;2697;42.144;24.794;2023-04-23T01:19:36;6024.25;;;11.26;100.00
5350;BME280;2697;42.144;24.794;2023-04-23T01:22:07;5014.28;;;11.17;100.00
5350;BME280;2697;42.144;24.794;2023-04-23T01:24:32;1988.38;;;11.01;100.00
5350;BME280;2697;42.144;24.794;2023-04-23T01:26:58;308.91;;;10.88;100.00
5350;BME280;2697;42.144;24.794;2023-04-23T01:29:24;-1033.63;;;10.87;100.00
5350;BME280;2697;42.144;24.794;2023-04-23T01:31:50;-1704.56;;;10.71;100.00
5350;BME280;2697;42.144;24.794;2023-04-23T01:34:17;-4051.69;;;10.69;100.00
5350;BME280;2697;42.144;24.794;2023-04-23T01:36:43;-4051.34;;;10.62;100.00
5350;BME280;2697;42.144;24.794;2023-04-23T01:39:10;-4386.22;;;10.56;100.00
5350;BME280;2697;42.144;24.794;2023-04-23T01:41:35;-5725.41;;;10.42;100.00
5350;BME280;2697;42.144;24.794;2023-04-23T01:44:01;-7398.63;;;10.33;100.00
5350;BME280;2697;42.144;24.794;2023-04-23T01:46:27;-8402.81;;;10.34;100.00
5350;BME280;2697;42.144;24.794;2023-04-23T01:48:52;-8736.63;;;10.27;100.00
5350;BME280;2697;42.144;24.794;2023-04-23T01:51:18;-8731.47;;;9.85;100.00
5350;BME280;2697;42.144;24.794;2023-04-23T01:53:44;-8735.56;;;10.19;100.00
5350;BME280;2697;42.144;24.794;2023-04-23T01:56:09;-10072.34;;;10.11;100.00
5350;BME280;2697;42.144;24.794;2023-04-23T01:58:35;-11409.66;;;10.12;100.00
5350;BME280;2697;42.144;24.794;2023-04-23T02:01:01;-12411.91;;;10.10;100.00
5350;BME280;2697;42.144;24.794;2023-04-23T02:03:28;-13080.72;;;10.13;100.00
5350;BME280;2697;42.144;24.794;2023-04-23T02:05:55;-13749.72;;;10.17;100.00
5350;BME280;2697;42.144;24.794;2023-04-23T02:08:21;-14083.78;;;10.17;100.00
5350;BME280;2697;42.144;24.794;2023-04-23T02:10:46;-14752.47;;;10.20;100.00
5350;BME280;2697;42.144;24.794;2023-04-23T02:13:12;-15421.13;;;10.23;100.00
5350;BME280;2697;42.144;24.794;2023-04-23T02:15:37;-15422.31;;;10.28;100.00
5350;BME280;2697;42.144;24.794;2023-04-23T02:18:03;-15755.81;;;10.26;100.00
5350;BME280;2697;42.144;24.794;2023-04-23T02:20:29;-15089.44;;;10.33;100.00
5350;BME280;2697;42.144;24.794;2023-04-23T02:22:54;-14088.47;;;10.39;100.00
5350;BME280;2697;42.144;24.794;2023-04-23T02:25:20;-11749.28;;;10.43;100.00
5350;BME280;2697;42.144;24.794;2023-04-23T02:27:46;-10411.00;;;10.40;100.00
5350;BME280;2697;42.144;24.794;2023-04-23T02:30:12;-9073.31;;;10.44;100.00
5350;BME280;2697;42.144;24.794;2023-04-23T02:32:38;-8069.19;;;10.43;100.00
5350;BME280;2697;42.144;24.794;2023-04-23T02:35:04;-7064.81;;;10.42;100.00
5350;BME280;2697;42.144;24.794;2023-04-23T02:37:34;-6729.91;;;10.41;100.00
5350;BME280;2697;42.144;24.794;2023-04-23T02:40:00;-6394.72;;;10.37;100.00
5350;BME280;2697;42.144;24.794;2023-04-23T02:42:25;-5390.13;;;10.37;100.00
5350;BME280;2697;42.144;24.794;2023-04-23T02:44:51;-4720.28;;;10.38;100.00
5350;BME280;2697;42.144;24.794;2023-04-23T02:47:16;-4720.00;;;10.33;100.00
5350;BME280;2697;42.144;24.794;2023-04-23T02:49:42;-5724.38;;;10.28;100.00
5350;BME280;2697;42.144;24.794;2023-04-23T02:52:07;-5724.19;;;10.26;100.00
5350;BME280;2697;42.144;24.794;2023-04-23T02:54:33;-6393.72;;;10.25;100.00
5350;BME280;2697;42.144;24.794;2023-04-23T02:56:58;-6727.84;;;10.18;100.00
5350;BME280;2697;42.144;24.794;2023-04-23T02:59:24;-6393.28;;;10.20;100.00
5350;BME280;2697;42.144;24.794;2023-04-23T03:01:50;-6057.88;;;10.12;100.00
5350;BME280;2697;42.144;24.794;2023-04-23T03:04:16;-5388.38;;;10.11;100.00
5350;BME280;2697;42.144;24.794;2023-04-23T03:06:42;-4049.31;;;10.17;100.00
5350;BME280;2697;42.144;24.794;2023-04-23T03:09:07;-3044.72;;;10.27;100.00
5350;BME280;2697;42.144;24.794;2023-04-23T03:11:33;-363.22;;;10.30;100.00
5350;BME280;2697;42.144;24.794;2023-04-23T03:13:58;1648.59;;;10.17;100.00
5350;BME280;2697;42.144;24.794;2023-04-23T03:16:26;1648.47;;;10.14;100.00
5350;BME280;2697;42.144;24.794;2023-04-23T03:18:52;1983.47;;;10.06;100.00
5350;BME280;2697;42.144;24.794;2023-04-23T03:21:17;977.28;;;10.02;100.00
5350;BME280;2697;42.144;24.794;2023-04-23T03:23:43;306.53;;;9.92;100.00
5350;BME280;2697;42.144;24.794;2023-04-23T03:26:08;-698.81;;;9.92;100.00
5350;BME280;2697;42.144;24.794;2023-04-23T03:28:33;-1368.94;;;9.97;100.00
5350;BME280;2697;42.144;24.794;2023-04-23T03:30:59;-2038.88;;;9.89;100.00
5350;BME280;2697;42.144;24.794;2023-04-23T03:33:24;-2038.94;;;9.95;100.00
5350;BME280;2697;42.144;24.794;2023-04-23T03:35:50;-3043.38;;;9.82;100.00
5350;BME280;2697;42.144;24.794;2023-04-23T03:38:15;-5051.59;;;9.80;100.00
5350;BME280;2697;42.144;24.794;2023-04-23T03:40:41;-5721.47;;;9.89;100.00
5350;BME280;2697;42.144;24.794;2023-04-23T03:43:06;-5387.09;;;9.92;100.00
5350;BME280;2697;42.144;24.794;2023-04-23T03:45:31;-7391.53;;;9.62;100.00
5350;BME280;2697;42.144;24.794;2023-04-23T03:47:57;-8395.88;;;9.75;100.00
5350;BME280;2697;42.144;24.794;2023-04-23T03:50:22;-9065.78;;;9.85;100.00
5350;BME280;2697;42.144;24.794;2023-04-23T03:52:47;-8397.81;;;9.91;100.00
5350;BME280;2697;42.144;24.794;2023-04-23T03:55:13;-7395.88;;;10.05;100.00
5350;BME280;2697;42.144;24.794;2023-04-23T03:57:38;-6393.28;;;10.20;100.00
5350;BME280;2697;42.144;24.794;2023-04-23T04:00:05;-5389.06;;;10.21;100.00
5350;BME280;2697;42.144;24.794;2023-04-23T04:02:36;-4719.53;;;10.25;100.00
5350;BME280;2697;42.144;24.794;2023-04-23T04:05:02;-4719.66;;;10.27;100.00
5350;BME280;2697;42.144;24.794;2023-04-23T04:07:28;-5054.75;;;10.30;100.00
5350;BME280;2697;42.144;24.794;2023-04-23T04:09:53;-3714.66;;;10.24;100.00
5350;BME280;2697;42.144;24.794;2023-04-23T04:12:19;-3044.34;;;10.15;100.00
5350;BME280;2697;42.144;24.794;2023-04-23T04:14:44;-3044.81;;;10.31;100.00
5350;BME280;2697;42.144;24.794;2023-04-23T04:17:10;-4051.72;;;10.70;100.00
5350;BME280;2697;42.144;24.794;2023-04-23T04:19:36;-1705.09;;;11.40;100.00
5350;BME280;2697;42.144;24.794;2023-04-23T04:22:02;8396.47;;;12.33;100.00
5350;BME280;2697;42.144;24.794;2023-04-23T04:24:28;31775.69;;;13.15;100.00
5350;BME280;2697;42.144;24.794;2023-04-23T04:26:57;89661.84;;;13.57;100.00
5350;BME280;2697;42.144;24.794;2023-04-23T04:29:24;156235.53;;;14.21;100.00
5350;BME280;2697;42.144;24.794;2023-04-23T04:31:50;156366.38;;;14.71;100.00
5350;BME280;2697;42.144;24.794;2023-04-23T04:34:16;156486.59;;;15.18;100.00
5350;BME280;2697;42.144;24.794;2023-04-23T04:36:42;156628.03;;;15.72;100.00
5350;BME280;2697;42.144;24.794;2023-04-23T04:39:07;156642.59;;;15.78;100.00
5350;BME280;2697;42.144;24.794;2023-04-23T04:41:33;156499.78;;;15.23;100.00
5350;BME280;2697;42.144;24.794;2023-04-23T04:43:58;156591.00;;;15.58;100.00
5350;BME280;2697;42.144;24.794;2023-04-23T04:46:24;156587.03;;;15.56;100.00
5350;BME280;2697;42.144;24.794;2023-04-23T04:48:50;156781.44;;;16.31;100.00
5350;BME280;2697;42.144;24.794;2023-04-23T04:51:16;157264.63;;;18.17;98.29
5350;BME280;2697;42.144;24.794;2023-04-23T04:53:42;156987.84;;;17.10;98.77
5350;BME280;2697;42.144;24.794;2023-04-23T04:56:07;157077.88;;;17.45;91.52
5350;BME280;2697;42.144;24.794;2023-04-23T04:58:33;157013.00;;;17.20;89.20
5350;BME280;2697;42.144;24.794;2023-04-23T05:00:58;157121.56;;;17.62;92.79
5350;BME280;2697;42.144;24.794;2023-04-23T05:03:25;157216.94;;;17.99;87.35
5350;BME280;2697;42.144;24.794;2023-04-23T05:05:52;157542.88;;;19.24;77.66
5350;BME280;2697;42.144;24.794;2023-04-23T05:08:20;157725.91;;;19.94;69.54
5350;BME280;2697;42.144;24.794;2023-04-23T05:10:46;157667.53;;;19.72;73.54
5350;BME280;2697;42.144;24.794;2023-04-23T05:13:11;156799.97;;;16.38;84.95
5350;BME280;2697;42.144;24.794;2023-04-23T05:15:37;156776.16;;;16.29;86.27
5350;BME280;2697;42.144;24.794;2023-04-23T05:18:04;156584.41;;;15.55;95.84
5350;BME280;2697;42.144;24.794;2023-04-23T05:20:29;156647.88;;;15.80;93.55
5350;BME280;2697;42.144;24.794;2023-04-23T05:22:55;156285.72;;;14.40;100.00
5350;BME280;2697;42.144;24.794;2023-04-23T05:25:23;156431.06;;;14.96;100.00
5350;BME280;2697;42.144;24.794;2023-04-23T05:27:49;156351.81;;;14.66;100.00
5350;BME280;2697;42.144;24.794;2023-04-23T05:30:15;156409.91;;;14.88;100.00
5350;BME280;2697;42.144;24.794;2023-04-23T05:32:40;157024.94;;;17.25;87.63
5350;BME280;2697;42.144;24.794;2023-04-23T05:35:06;156621.44;;;15.70;89.38
5350;BME280;2697;42.144;24.794;2023-04-23T05:37:32;156764.25;;;16.24;89.13
5350;BME280;2697;42.144;24.794;2023-04-23T05:39:57;156577.75;;;15.53;94.73
5350;BME280;2697;42.144;24.794;2023-04-23T05:42:23;156534.19;;;15.36;96.09
5350;BME280;2697;42.144;24.794;2023-04-23T05:44:48;157092.44;;;17.51;83.33
5350;BME280;2697;42.144;24.794;2023-04-23T05:47:13;156957.44;;;16.99;86.93
5350;BME280;2697;42.144;24.794;2023-04-23T05:49:39;157288.47;;;18.26;78.49
5350;BME280;2697;42.144;24.794;2023-04-23T05:52:04;158088.19;;;21.33;64.29
5350;BME280;2697;42.144;24.794;2023-04-23T05:54:30;158434.81;;;22.66;58.87
5350;BME280;2697;42.144;24.794;2023-04-23T05:56:56;157585.31;;;19.40;64.72
5350;BME280;2697;42.144;24.794;2023-04-23T05:59:21;157277.84;;;18.22;72.35
5350;BME280;2697;42.144;24.794;2023-04-23T06:01:48;157704.69;;;19.86;69.06
5350;BME280;2697;42.144;24.794;2023-04-23T06:04:14;157426.25;;;18.79;70.12
5350;BME280;2697;42.144;24.794;2023-04-23T06:06:40;156923.06;;;16.86;78.13
5350;BME280;2697;42.144;24.794;2023-04-23T06:09:06;156986.53;;;17.10;78.90
5350;BME280;2697;42.144;24.794;2023-04-23T06:11:32;157367.94;;;18.57;74.09
5350;BME280;2697;42.144;24.794;2023-04-23T06:13:58;157828.00;;;20.33;66.83
5350;BME280;2697;42.144;24.794;2023-04-23T06:16:24;158043.00;;;21.16;62.81
5350;BME280;2697;42.144;24.794;2023-04-23T06:18:49;157871.84;;;20.50;65.40
5350;BME280;2697;42.144;24.794;2023-04-23T06:21:15;157418.31;;;18.76;70.11
5350;BME280;2697;42.144;24.794;2023-04-23T06:23:40;156991.81;;;17.12;78.53
5350;BME280;2697;42.144;24.794;2023-04-23T06:26:05;157028.91;;;17.26;77.83
5350;BME280;2697;42.144;24.794;2023-04-23T06:28:31;157696.75;;;19.83;69.67
5350;BME280;2697;42.144;24.794;2023-04-23T06:30:56;157558.81;;;19.30;68.59
5350;BME280;2697;42.144;24.794;2023-04-23T06:33:22;157451.44;;;18.89;67.47
5350;BME280;2697;42.144;24.794;2023-04-23T06:35:47;157341.44;;;18.46;70.91
5350;BME280;2697;42.144;24.794;2023-04-23T06:38:12;158157.22;;;21.59;62.99
5350;BME280;2697;42.144;24.794;2023-04-23T06:40:38;158015.16;;;21.05;63.86
5350;BME280;2697;42.144;24.794;2023-04-23T06:43:03;157988.63;;;20.95;64.33
5350;BME280;2697;42.144;24.794;2023-04-23T06:45:30;158299.31;;;22.14;58.03
5350;BME280;2697;42.144;24.794;2023-04-23T06:47:57;158264.75;;;22.01;59.40
5350;BME280;2697;42.144;24.794;2023-04-23T06:50:22;158185.09;;;21.70;58.18
5350;BME280;2697;42.144;24.794;2023-04-23T06:52:47;158206.34;;;21.78;58.75
5350;BME280;2697;42.144;24.794;2023-04-23T06:55:13;158352.47;;;22.34;57.05
5350;BME280;2697;42.144;24.794;2023-04-23T06:57:38;158538.50;;;23.06;53.25
5350;BME280;2697;42.144;24.794;2023-04-23T07:00:04;158458.75;;;22.75;53.73
5350;BME280;2697;42.144;24.794;2023-04-23T07:02:33;158347.13;;;22.32;56.91
5350;BME280;2697;42.144;24.794;2023-04-23T07:04:58;158142.59;;;21.54;56.36
5350;BME280;2697;42.144;24.794;2023-04-23T07:07:24;158129.31;;;21.49;56.61
5350;BME280;2697;42.144;24.794;2023-04-23T07:09:50;157927.56;;;20.71;58.14
5350;BME280;2697;42.144;24.794;2023-04-23T07:12:15;157403.72;;;18.70;66.37
5350;BME280;2697;42.144;24.794;2023-04-23T07:14:41;157153.38;;;17.74;71.52
5350;BME280;2697;42.144;24.794;2023-04-23T07:17:07;157222.25;;;18.01;72.23
5350;BME280;2697;42.144;24.794;2023-04-23T07:19:32;157272.56;;;18.20;71.04
5350;BME280;2697;42.144;24.794;2023-04-23T07:21:57;157137.41;;;17.68;73.29
5350;BME280;2697;42.144;24.794;2023-04-23T07:24:23;156961.41;;;17.00;76.93
5350;BME280;2697;42.144;24.794;2023-04-23T07:26:50;156727.25;;;16.10;81.34
5350;BME280;2697;42.144;24.794;2023-04-23T07:29:15;156819.78;;;16.46;77.76
5350;BME280;2697;42.144;24.794;2023-04-23T07:31:41;156835.66;;;16.52;78.61
5350;BME280;2697;42.144;24.794;2023-04-23T07:34:06;156835.66;;;16.52;79.18
5350;BME280;2697;42.144;24.794;2023-04-23T07:36:32;156647.88;;;15.80;81.05
5350;BME280;2697;42.144;24.794;2023-04-23T07:38:57;156658.47;;;15.84;84.33
5350;BME280;2697;42.144;24.794;2023-04-23T07:41:23;156653.16;;;15.82;85.20
5350;BME280;2697;42.144;24.794;2023-04-23T07:43:49;156642.59;;;15.78;84.37
5350;BME280;2697;42.144;24.794;2023-04-23T07:46:15;156661.13;;;15.85;85.51
5350;BME280;2697;42.144;24.794;2023-04-23T07:48:40;156772.16;;;16.28;83.24
5350;BME280;2697;42.144;24.794;2023-04-23T07:51:07;156745.72;;;16.17;80.22
5350;BME280;2697;42.144;24.794;2023-04-23T07:53:33;156716.63;;;16.06;80.84
5350;BME280;2697;42.144;24.794;2023-04-23T07:55:58;156723.22;;;16.09;83.04
5350;BME280;2697;42.144;24.794;2023-04-23T07:58:24;156647.88;;;15.80;81.40
5350;BME280;2697;42.144;24.794;2023-04-23T08:00:49;156676.94;;;15.91;80.60
5350;BME280;2697;42.144;24.794;2023-04-23T08:03:15;156598.97;;;15.61;82.13
5350;BME280;2697;42.144;24.794;2023-04-23T08:05:41;156698.09;;;15.99;79.59
5350;BME280;2697;42.144;24.794;2023-04-23T08:08:07;156867.41;;;16.64;79.97
5350;BME280;2697;42.144;24.794;2023-04-23T08:10:33;156895.22;;;16.75;77.70
5350;BME280;2697;42.144;24.794;2023-04-23T08:13:00;156840.94;;;16.54;77.95
5350;BME280;2697;42.144;24.794;2023-04-23T08:15:25;156874.06;;;16.67;77.93
5350;BME280;2697;42.144;24.794;2023-04-23T08:17:51;156891.28;;;16.73;75.68
5350;BME280;2697;42.144;24.794;2023-04-23T08:20:17;156878.06;;;16.68;75.07
5350;BME280;2697;42.144;24.794;2023-04-23T08:22:42;156809.22;;;16.42;76.36
5350;BME280;2697;42.144;24.794;2023-04-23T08:25:08;156920.41;;;16.85;78.57
5350;BME280;2697;42.144;24.794;2023-04-23T08:27:34;156872.72;;;16.66;74.90
5350;BME280;2697;42.144;24.794;2023-04-23T08:29:59;156919.03;;;16.84;73.42
5350;BME280;2697;42.144;24.794;2023-04-23T08:32:24;156925.69;;;16.87;73.38
5350;BME280;2697;42.144;24.794;2023-04-23T08:34:50;156954.78;;;16.98;69.56
5350;BME280;2697;42.144;24.794;2023-04-23T08:37:15;156917.72;;;16.84;72.58
5350;BME280;2697;42.144;24.794;2023-04-23T08:39:41;156913.75;;;16.82;72.68
5350;BME280;2697;42.144;24.794;2023-04-23T08:42:14;157039.47;;;17.30;70.36
5350;BME280;2697;42.144;24.794;2023-04-23T08:44:45;156923.06;;;16.86;70.98
5350;BME280;2697;42.144;24.794;2023-04-23T08:47:15;156790.69;;;16.35;70.03
5350;BME280;2697;42.144;24.794;2023-04-23T08:49:44;156930.97;;;16.89;70.29
5350;BME280;2697;42.144;24.794;2023-04-23T08:52:16;156927.00;;;16.87;65.25
5350;BME280;2697;42.144;24.794;2023-04-23T08:54:48;157009.03;;;17.19;65.69
5350;BME280;2697;42.144;24.794;2023-04-23T08:57:15;157017.00;;;17.22;66.83
5350;BME280;2697;42.144;24.794;2023-04-23T08:59:41;157005.06;;;17.17;68.58
5350;BME280;2697;42.144;24.794;2023-04-23T09:02:07;156983.91;;;17.09;70.16
5350;BME280;2697;42.144;24.794;2023-04-23T09:04:35;156990.50;;;17.12;70.24
5350;BME280;2697;42.144;24.794;2023-04-23T09:07:00;157080.50;;;17.46;67.67
5350;BME280;2697;42.144;24.794;2023-04-23T09:09:28;157067.31;;;17.41;67.88
5350;BME280;2697;42.144;24.794;2023-04-23T09:11:55;157010.34;;;17.19;69.96
5350;BME280;2697;42.144;24.794;2023-04-23T09:14:22;157043.47;;;17.32;68.03
5350;BME280;2697;42.144;24.794;2023-04-23T09:16:49;157087.13;;;17.49;69.68
5350;BME280;2697;42.144;24.794;2023-04-23T09:19:16;157095.09;;;17.52;68.04
5350;BME280;2697;42.144;24.794;2023-04-23T09:21:43;157108.31;;;17.57;67.01
5350;BME280;2697;42.144;24.794;2023-04-23T09:24:10;157189.16;;;17.88;64.07
5350;BME280;2697;42.144;24.794;2023-04-23T09:26:47;157269.91;;;18.19;63.57
5350;BME280;2697;42.144;24.794;2023-04-23T09:29:15;157248.72;;;18.11;62.48
5350;BME280;2697;42.144;24.794;2023-04-23T09:31:47;157212.97;;;17.97;63.45
5350;BME280;2697;42.144;24.794;2023-04-23T09:34:23;157142.81;;;17.70;64.20
5350;BME280;2697;42.144;24.794;2023-04-23T09:36:51;156983.91;;;17.09;65.94
5350;BME280;2697;42.144;24.794;2023-04-23T09:39:23;157150.72;;;17.73;64.39
5350;BME280;2697;42.144;24.794;2023-04-23T09:41:51;157216.94;;;17.99;63.56
5350;BME280;2697;42.144;24.794;2023-04-23T09:44:18;157236.81;;;18.06;63.40
5350;BME280;2697;42.144;24.794;2023-04-23T09:46:46;157254.00;;;18.13;63.18
5350;BME280;2697;42.144;24.794;2023-04-23T09:49:12;157193.13;;;17.89;63.59
5350;BME280;2697;42.144;24.794;2023-04-23T09:51:39;157214.31;;;17.98;63.26
5350;BME280;2697;42.144;24.794;2023-04-23T09:56:41;157292.44;;;18.28;58.63
5350;BME280;2697;42.144;24.794;2023-04-23T09:59:26;157326.84;;;18.41;57.18
5350;BME280;2697;42.144;24.794;2023-04-23T10:01:53;157182.50;;;17.85;58.76
5350;BME280;2697;42.144;24.794;2023-04-23T10:04:22;157167.97;;;17.80;60.70
5350;BME280;2697;42.144;24.794;2023-04-23T10:07:02;157291.09;;;18.27;61.83
5350;BME280;2697;42.144;24.794;2023-04-23T10:09:29;157312.31;;;18.35;61.42
5350;BME280;2697;42.144;24.794;2023-04-23T10:12:00;157373.22;;;18.59;59.75
5350;BME280;2697;42.144;24.794;2023-04-23T10:14:27;157365.28;;;18.56;59.92
5350;BME280;2697;42.144;24.794;2023-04-23T10:17:00;157362.63;;;18.55;58.46
5350;BME280;2697;42.144;24.794;2023-04-23T10:19:27;157448.78;;;18.88;60.44
5350;BME280;2697;42.144;24.794;2023-04-23T10:21:58;157574.72;;;19.36;57.01
5350;BME280;2697;42.144;24.794;2023-04-23T10:24:31;157484.59;;;19.01;57.88
5350;BME280;2697;42.144;24.794;2023-04-23T10:27:00;157540.22;;;19.23;58.11
5350;BME280;2697;42.144;24.794;2023-04-23T10:29:35;157352.00;;;18.50;58.84
5350;BME280;2697;42.144;24.794;2023-04-23T10:32:03;157395.78;;;18.67;58.08
5350;BME280;2697;42.144;24.794;2023-04-23T10:34:31;157508.44;;;19.11;57.52
5350;BME280;2697;42.144;24.794;2023-04-23T10:36:58;157525.69;;;19.17;58.92
5350;BME280;2697;42.144;24.794;2023-04-23T10:39:27;157503.16;;;19.08;58.64
5350;BME280;2697;42.144;24.794;2023-04-23T10:41:54;157488.56;;;19.03;58.30
5350;BME280;2697;42.144;24.794;2023-04-23T10:44:21;157447.47;;;18.87;62.05
5350;BME280;2697;42.144;24.794;2023-04-23T10:46:53;157519.03;;;19.15;57.93
5350;BME280;2697;42.144;24.794;2023-04-23T10:49:23;157394.47;;;18.67;60.98
5350;BME280;2697;42.144;24.794;2023-04-23T10:51:58;157248.72;;;18.11;62.29
5350;BME280;2697;42.144;24.794;2023-04-23T10:54:28;157281.81;;;18.23;61.34
5350;BME280;2697;42.144;24.794;2023-04-23T10:57:12;157390.50;;;18.65;60.29
5350;BME280;2697;42.144;24.794;2023-04-23T10:59:40;157477.97;;;18.99;60.68
5350;BME280;2697;42.144;24.794;2023-04-23T11:02:12;157415.69;;;18.75;59.54
5350;BME280;2697;42.144;24.794;2023-04-23T11:04:44;157362.63;;;18.55;60.23
5350;BME280;2697;42.144;24.794;2023-04-23T11:07:11;157497.81;;;19.06;61.22
5350;BME280;2697;42.144;24.794;2023-04-23T11:09:41;157497.81;;;19.06;58.26
5350;BME280;2697;42.144;24.794;2023-04-23T11:12:13;157452.81;;;18.89;57.89
5350;BME280;2697;42.144;24.794;2023-04-23T11:17:11;157439.53;;;18.84;60.48
5350;BME280;2697;42.144;24.794;2023-04-23T11:19:38;157542.88;;;19.24;58.19
5350;BME280;2697;42.144;24.794;2023-04-23T11:22:11;157529.66;;;19.19;56.04
5350;BME280;2697;42.144;24.794;2023-04-23T11:24:39;157534.94;;;19.21;56.23
5350;BME280;2697;42.144;24.794;2023-04-23T11:27:15;157578.69;;;19.38;55.77
5350;BME280;2697;42.144;24.794;2023-04-23T11:29:43;157570.72;;;19.34;56.67
5350;BME280;2697;42.144;24.794;2023-04-23T11:32:10;157521.66;;;19.16;55.78
5350;BME280;2697;42.144;24.794;2023-04-23T11:34:44;157675.53;;;19.75;56.72
5350;BME280;2697;42.144;24.794;2023-04-23T11:37:12;157709.97;;;19.88;54.17
5350;BME280;2697;42.144;24.794;2023-04-23T11:39:39;157753.75;;;20.05;53.90
5350;BME280;2697;42.144;24.794;2023-04-23T11:42:09;157694.03;;;19.82;52.70
5350;BME280;2697;42.144;24.794;2023-04-23T11:44:37;157725.91;;;19.94;52.40
5350;BME280;2697;42.144;24.794;2023-04-23T11:47:09;157704.69;;;19.86;52.08
5350;BME280;2697;42.144;24.794;2023-04-23T11:49:36;157733.84;;;19.97;51.98
5350;BME280;2697;42.144;24.794;2023-04-23T11:52:02;157724.56;;;19.93;51.41
5350;BME280;2697;42.144;24.794;2023-04-23T11:54:28;157727.22;;;19.95;52.30
5350;BME280;2697;42.144;24.794;2023-04-23T11:56:54;157656.94;;;19.68;51.62
5350;BME280;2697;42.144;24.794;2023-04-23T11:59:20;157752.41;;;20.04;51.85
5350;BME280;2697;42.144;24.794;2023-04-23T12:01:47;157757.72;;;20.06;52.98
5350;BME280;2697;42.144;24.794;2023-04-23T12:04:24;157845.28;;;20.40;50.42
5350;BME280;2697;42.144;24.794;2023-04-23T12:06:52;157786.88;;;20.17;48.79
5350;BME280;2697;42.144;24.794;2023-04-23T12:09:19;157708.66;;;19.87;49.92
5350;BME280;2697;42.144;24.794;2023-04-23T12:11:45;157704.69;;;19.86;50.09
5350;BME280;2697;42.144;24.794;2023-04-23T12:14:13;157834.63;;;20.36;48.69
5350;BME280;2697;42.144;24.794;2023-04-23T12:16:43;157837.28;;;20.37;47.48
5350;BME280;2697;42.144;24.794;2023-04-23T12:19:13;157733.84;;;19.97;48.93
5350;BME280;2697;42.144;24.794;2023-04-23T12:22:00;157833.31;;;20.35;47.92
5350;BME280;2697;42.144;24.794;2023-04-23T12:24:29;158044.34;;;21.16;46.37
5350;BME280;2697;42.144;24.794;2023-04-23T12:26:59;158065.56;;;21.24;44.72
5350;BME280;2697;42.144;24.794;2023-04-23T12:29:28;158097.47;;;21.37;46.64
5350;BME280;2697;42.144;24.794;2023-04-23T12:31:57;158020.44;;;21.07;46.23
5350;BME280;2697;42.144;24.794;2023-04-23T12:34:23;158033.69;;;21.12;46.28
5350;BME280;2697;42.144;24.794;2023-04-23T12:36:50;158001.84;;;21.00;45.67
5350;BME280;2697;42.144;24.794;2023-04-23T12:39:32;158081.53;;;21.30;44.95
5350;BME280;2697;42.144;24.794;2023-04-23T12:42:05;158113.41;;;21.43;44.96
5350;BME280;2697;42.144;24.794;2023-04-23T12:44:35;158086.88;;;21.32;45.42
5350;BME280;2697;42.144;24.794;2023-04-23T12:47:07;158092.16;;;21.34;43.45
5350;BME280;2697;42.144;24.794;2023-04-23T12:49:34;158105.41;;;21.40;42.97
5350;BME280;2697;42.144;24.794;2023-04-23T12:52:01;158054.94;;;21.20;43.22
5350;BME280;2697;42.144;24.794;2023-04-23T12:54:35;158012.50;;;21.04;44.52
5350;BME280;2697;42.144;24.794;2023-04-23T12:57:02;157890.44;;;20.57;47.04
5350;BME280;2697;42.144;24.794;2023-04-23T12:59:29;158003.19;;;21.00;45.61
5350;BME280;2697;42.144;24.794;2023-04-23T13:01:55;157816.06;;;20.29;47.07
5350;BME280;2697;42.144;24.794;2023-04-23T13:04:21;157919.59;;;20.68;45.09